sensor_id;sensor_type;location;lat;lon;timestamp;P1;durP1;ratioP1;P2;durP2;ratioP2
54845;SDS011;53889;50.084;8.646;2024-03-08T00:02:07;20.00;;;12.90;;
54845;SDS011;53889;50.084;8.646;2024-03-08T00:04:33;22.42;;;13.00;;
54845;SDS011;53889;50.084;8.646;2024-03-08T00:07:00;19.38;;;12.80;;
54845;SDS011;53889;50.084;8.646;2024-03-08T00:09:27;20.80;;;12.73;;
54845;SDS011;53889;50.084;8.646;2024-03-08T00:11:55;22.13;;;13.15;;
54845;SDS011;53889;50.084;8.646;2024-03-08T00:14:25;21.15;;;13.48;;
54845;SDS011;53889;50.084;8.646;2024-03-08T00:16:52;23.15;;;13.30;;
54845;SDS011;53889;50.084;8.646;2024-03-08T00:19:19;24.42;;;12.80;;
54845;SDS011;53889;50.084;8.646;2024-03-08T00:21:46;21.77;;;13.02;;
54845;SDS011;53889;50.084;8.646;2024-03-08T00:24:13;20.25;;;13.57;;
54845;SDS011;53889;50.084;8.646;2024-03-08T00:26:40;21.85;;;13.35;;
54845;SDS011;53889;50.084;8.646;2024-03-08T00:29:08;21.98;;;13.43;;
54845;SDS011;53889;50.084;8.646;2024-03-08T00:31:36;23.33;;;13.45;;
54845;SDS011;53889;50.084;8.646;2024-03-08T00:34:03;21.38;;;12.30;;
54845;SDS011;53889;50.084;8.646;2024-03-08T00:36:30;23.85;;;13.88;;
54845;SDS011;53889;50.084;8.646;2024-03-08T00:38:56;20.88;;;13.27;;
54845;SDS011;53889;50.084;8.646;2024-03-08T00:41:25;21.95;;;13.43;;
54845;SDS011;53889;50.084;8.646;2024-03-08T00:43:52;21.48;;;13.23;;
54845;SDS011;53889;50.084;8.646;2024-03-08T00:46:19;21.77;;;13.48;;
54845;SDS011;53889;50.084;8.646;2024-03-08T00:48:47;22.65;;;13.15;;
54845;SDS011;53889;50.084;8.646;2024-03-08T00:51:14;19.48;;;13.10;;
54845;SDS011;53889;50.084;8.646;2024-03-08T00:53:41;20.33;;;13.07;;
54845;SDS011;53889;50.084;8.646;2024-03-08T00:56:08;20.15;;;12.20;;
54845;SDS011;53889;50.084;8.646;2024-03-08T00:58:35;21.73;;;13.40;;
54845;SDS011;53889;50.084;8.646;2024-03-08T01:01:02;21.52;;;13.18;;
54845;SDS011;53889;50.084;8.646;2024-03-08T01:03:29;24.75;;;13.52;;
54845;SDS011;53889;50.084;8.646;2024-03-08T01:05:59;21.67;;;13.00;;
54845;SDS011;53889;50.084;8.646;2024-03-08T01:08:26;25.77;;;13.65;;
54845;SDS011;53889;50.084;8.646;2024-03-08T01:10:53;25.58;;;13.48;;
54845;SDS011;53889;50.084;8.646;2024-03-08T01:13:20;21.63;;;13.55;;
54845;SDS011;53889;50.084;8.646;2024-03-08T01:15:47;22.92;;;13.30;;
54845;SDS011;53889;50.084;8.646;2024-03-08T01:18:14;24.60;;;13.38;;
54845;SDS011;53889;50.084;8.646;2024-03-08T01:20:40;25.02;;;13.27;;
54845;SDS011;53889;50.084;8.646;2024-03-08T01:23:08;22.35;;;12.45;;
54845;SDS011;53889;50.084;8.646;2024-03-08T01:25:35;23.48;;;14.05;;
54845;SDS011;53889;50.084;8.646;2024-03-08T01:28:03;23.40;;;13.77;;
54845;SDS011;53889;50.084;8.646;2024-03-08T01:30:30;22.35;;;13.73;;
54845;SDS011;53889;50.084;8.646;2024-03-08T01:32:57;25.35;;;14.20;;
54845;SDS011;53889;50.084;8.646;2024-03-08T01:35:24;23.17;;;14.00;;
54845;SDS011;53889;50.084;8.646;2024-03-08T01:37:52;23.92;;;14.07;;
54845;SDS011;53889;50.084;8.646;2024-03-08T01:40:20;21.33;;;13.00;;
54845;SDS011;53889;50.084;8.646;2024-03-08T01:42:47;25.58;;;14.35;;
54845;SDS011;53889;50.084;8.646;2024-03-08T01:45:14;24.38;;;14.95;;
54845;SDS011;53889;50.084;8.646;2024-03-08T01:47:41;25.13;;;14.20;;
54845;SDS011;53889;50.084;8.646;2024-03-08T01:50:08;23.02;;;13.80;;
54845;SDS011;53889;50.084;8.646;2024-03-08T01:52:35;22.92;;;13.55;;
54845;SDS011;53889;50.084;8.646;2024-03-08T01:55:03;23.52;;;14.18;;
54845;SDS011;53889;50.084;8.646;2024-03-08T01:57:34;21.77;;;13.52;;
54845;SDS011;53889;50.084;8.646;2024-03-08T02:00:03;23.40;;;13.98;;
54845;SDS011;53889;50.084;8.646;2024-03-08T02:02:32;22.13;;;13.40;;
54845;SDS011;53889;50.084;8.646;2024-03-08T02:05:00;23.65;;;14.30;;
54845;SDS011;53889;50.084;8.646;2024-03-08T02:07:28;26.42;;;14.32;;
54845;SDS011;53889;50.084;8.646;2024-03-08T02:09:54;22.92;;;13.73;;
54845;SDS011;53889;50.084;8.646;2024-03-08T02:12:21;24.65;;;13.88;;
54845;SDS011;53889;50.084;8.646;2024-03-08T02:14:50;24.75;;;14.30;;
54845;SDS011;53889;50.084;8.646;2024-03-08T02:17:16;23.05;;;14.32;;
54845;SDS011;53889;50.084;8.646;2024-03-08T02:19:43;22.88;;;13.30;;
54845;SDS011;53889;50.084;8.646;2024-03-08T02:22:11;24.85;;;14.00;;
54845;SDS011;53889;50.084;8.646;2024-03-08T02:24:38;23.35;;;13.88;;
54845;SDS011;53889;50.084;8.646;2024-03-08T02:27:05;24.35;;;14.25;;
54845;SDS011;53889;50.084;8.646;2024-03-08T02:29:32;23.27;;;14.68;;
54845;SDS011;53889;50.084;8.646;2024-03-08T02:32:00;26.30;;;14.35;;
54845;SDS011;53889;50.084;8.646;2024-03-08T02:34:28;25.38;;;13.70;;
54845;SDS011;53889;50.084;8.646;2024-03-08T02:36:56;23.88;;;13.57;;
54845;SDS011;53889;50.084;8.646;2024-03-08T02:39:24;25.92;;;14.50;;
54845;SDS011;53889;50.084;8.646;2024-03-08T02:41:52;25.15;;;14.50;;
54845;SDS011;53889;50.084;8.646;2024-03-08T02:44:19;24.48;;;14.05;;
54845;SDS011;53889;50.084;8.646;2024-03-08T02:46:46;23.80;;;14.05;;
54845;SDS011;53889;50.084;8.646;2024-03-08T02:49:13;25.67;;;14.75;;
54845;SDS011;53889;50.084;8.646;2024-03-08T02:51:41;24.83;;;14.77;;
54845;SDS011;53889;50.084;8.646;2024-03-08T02:54:08;24.30;;;14.07;;
54845;SDS011;53889;50.084;8.646;2024-03-08T02:56:37;26.15;;;15.15;;
54845;SDS011;53889;50.084;8.646;2024-03-08T02:59:03;24.60;;;14.60;;
54845;SDS011;53889;50.084;8.646;2024-03-08T03:01:30;25.67;;;14.43;;
54845;SDS011;53889;50.084;8.646;2024-03-08T03:03:57;25.73;;;14.98;;
54845;SDS011;53889;50.084;8.646;2024-03-08T03:06:24;25.02;;;15.23;;
54845;SDS011;53889;50.084;8.646;2024-03-08T03:08:51;25.38;;;14.45;;
54845;SDS011;53889;50.084;8.646;2024-03-08T03:11:18;26.90;;;15.40;;
54845;SDS011;53889;50.084;8.646;2024-03-08T03:13:46;26.75;;;15.48;;
54845;SDS011;53889;50.084;8.646;2024-03-08T03:16:16;25.75;;;14.73;;
54845;SDS011;53889;50.084;8.646;2024-03-08T03:24:06;24.80;;;14.77;;
54845;SDS011;53889;50.084;8.646;2024-03-08T04:30:24;33.17;;;16.63;;
54845;SDS011;53889;50.084;8.646;2024-03-08T04:32:53;30.27;;;16.83;;
54845;SDS011;53889;50.084;8.646;2024-03-08T04:35:20;28.33;;;16.95;;
54845;SDS011;53889;50.084;8.646;2024-03-08T04:37:46;28.05;;;16.65;;
54845;SDS011;53889;50.084;8.646;2024-03-08T04:40:13;29.60;;;16.05;;
54845;SDS011;53889;50.084;8.646;2024-03-08T04:42:41;30.77;;;16.88;;
54845;SDS011;53889;50.084;8.646;2024-03-08T04:45:09;30.83;;;16.70;;
54845;SDS011;53889;50.084;8.646;2024-03-08T04:47:38;31.38;;;16.73;;
54845;SDS011;53889;50.084;8.646;2024-03-08T04:50:06;30.85;;;16.88;;
54845;SDS011;53889;50.084;8.646;2024-03-08T04:52:34;32.05;;;17.60;;
54845;SDS011;53889;50.084;8.646;2024-03-08T04:55:01;31.42;;;17.52;;
54845;SDS011;53889;50.084;8.646;2024-03-08T04:57:29;27.63;;;15.63;;
54845;SDS011;53889;50.084;8.646;2024-03-08T04:59:57;31.55;;;17.73;;
54845;SDS011;53889;50.084;8.646;2024-03-08T05:02:24;32.08;;;16.80;;
54845;SDS011;53889;50.084;8.646;2024-03-08T05:04:53;30.63;;;17.40;;
54845;SDS011;53889;50.084;8.646;2024-03-08T05:07:20;30.88;;;17.15;;
54845;SDS011;53889;50.084;8.646;2024-03-08T05:09:47;30.55;;;16.98;;
54845;SDS011;53889;50.084;8.646;2024-03-08T05:12:16;31.88;;;18.38;;
54845;SDS011;53889;50.084;8.646;2024-03-08T05:14:44;31.20;;;17.58;;
54845;SDS011;53889;50.084;8.646;2024-03-08T05:17:11;33.03;;;17.00;;
54845;SDS011;53889;50.084;8.646;2024-03-08T05:19:38;32.85;;;17.95;;
54845;SDS011;53889;50.084;8.646;2024-03-08T05:22:06;32.22;;;17.58;;
54845;SDS011;53889;50.084;8.646;2024-03-08T05:24:33;34.03;;;17.92;;
54845;SDS011;53889;50.084;8.646;2024-03-08T05:27:00;37.78;;;18.70;;
54845;SDS011;53889;50.084;8.646;2024-03-08T05:29:28;33.60;;;18.15;;
54845;SDS011;53889;50.084;8.646;2024-03-08T05:31:55;37.25;;;19.38;;
54845;SDS011;53889;50.084;8.646;2024-03-08T05:34:23;33.42;;;19.73;;
54845;SDS011;53889;50.084;8.646;2024-03-08T05:36:50;33.05;;;19.25;;
54845;SDS011;53889;50.084;8.646;2024-03-08T05:39:18;38.28;;;21.25;;
54845;SDS011;53889;50.084;8.646;2024-03-08T05:41:45;36.95;;;19.92;;
54845;SDS011;53889;50.084;8.646;2024-03-08T05:44:12;36.05;;;19.08;;
54845;SDS011;53889;50.084;8.646;2024-03-08T05:46:39;41.45;;;21.58;;
54845;SDS011;53889;50.084;8.646;2024-03-08T05:49:06;53.13;;;25.70;;
54845;SDS011;53889;50.084;8.646;2024-03-08T05:51:35;42.28;;;22.77;;
54845;SDS011;53889;50.084;8.646;2024-03-08T05:54:04;43.08;;;22.45;;
54845;SDS011;53889;50.084;8.646;2024-03-08T05:56:33;49.95;;;24.92;;
54845;SDS011;53889;50.084;8.646;2024-03-08T05:59:00;56.58;;;26.67;;
54845;SDS011;53889;50.084;8.646;2024-03-08T06:01:27;56.13;;;26.83;;
54845;SDS011;53889;50.084;8.646;2024-03-08T06:03:56;46.88;;;23.58;;
54845;SDS011;53889;50.084;8.646;2024-03-08T06:06:24;43.53;;;23.05;;
54845;SDS011;53889;50.084;8.646;2024-03-08T06:08:51;58.45;;;29.38;;
54845;SDS011;53889;50.084;8.646;2024-03-08T06:11:20;38.08;;;20.38;;
54845;SDS011;53889;50.084;8.646;2024-03-08T06:13:49;32.05;;;18.08;;
54845;SDS011;53889;50.084;8.646;2024-03-08T06:16:15;33.13;;;17.88;;
54845;SDS011;53889;50.084;8.646;2024-03-08T06:18:42;33.42;;;18.13;;
54845;SDS011;53889;50.084;8.646;2024-03-08T06:21:09;34.08;;;18.17;;
54845;SDS011;53889;50.084;8.646;2024-03-08T06:23:37;32.35;;;17.88;;
54845;SDS011;53889;50.084;8.646;2024-03-08T06:26:04;37.15;;;18.98;;
54845;SDS011;53889;50.084;8.646;2024-03-08T06:28:31;36.92;;;19.65;;
54845;SDS011;53889;50.084;8.646;2024-03-08T06:31:01;37.90;;;19.38;;
54845;SDS011;53889;50.084;8.646;2024-03-08T06:33:28;33.35;;;18.90;;
54845;SDS011;53889;50.084;8.646;2024-03-08T06:35:57;38.00;;;20.30;;
54845;SDS011;53889;50.084;8.646;2024-03-08T06:38:24;31.42;;;18.13;;
54845;SDS011;53889;50.084;8.646;2024-03-08T06:40:51;30.67;;;18.10;;
54845;SDS011;53889;50.084;8.646;2024-03-08T06:43:18;31.33;;;17.88;;
54845;SDS011;53889;50.084;8.646;2024-03-08T06:45:45;33.97;;;18.48;;
54845;SDS011;53889;50.084;8.646;2024-03-08T08:08:34;22.92;;;15.70;;
54845;SDS011;53889;50.084;8.646;2024-03-08T08:11:01;21.95;;;14.85;;
54845;SDS011;53889;50.084;8.646;2024-03-08T08:13:28;21.75;;;14.63;;
54845;SDS011;53889;50.084;8.646;2024-03-08T08:15:57;20.95;;;14.80;;
54845;SDS011;53889;50.084;8.646;2024-03-08T08:18:24;22.35;;;14.88;;
54845;SDS011;53889;50.084;8.646;2024-03-08T08:20:51;20.77;;;14.75;;
54845;SDS011;53889;50.084;8.646;2024-03-08T08:23:18;21.58;;;14.77;;
54845;SDS011;53889;50.084;8.646;2024-03-08T08:25:46;20.95;;;14.65;;
54845;SDS011;53889;50.084;8.646;2024-03-08T08:28:15;20.77;;;14.38;;
54845;SDS011;53889;50.084;8.646;2024-03-08T08:30:43;20.02;;;14.77;;
54845;SDS011;53889;50.084;8.646;2024-03-08T08:33:10;20.58;;;14.48;;
54845;SDS011;53889;50.084;8.646;2024-03-08T08:35:37;20.00;;;14.52;;
54845;SDS011;53889;50.084;8.646;2024-03-08T08:38:04;20.15;;;14.85;;
54845;SDS011;53889;50.084;8.646;2024-03-08T08:40:32;19.05;;;13.95;;
54845;SDS011;53889;50.084;8.646;2024-03-08T08:43:02;19.52;;;14.15;;
54845;SDS011;53889;50.084;8.646;2024-03-08T08:45:29;20.20;;;14.90;;
54845;SDS011;53889;50.084;8.646;2024-03-08T08:47:56;19.95;;;14.15;;
54845;SDS011;53889;50.084;8.646;2024-03-08T08:50:24;19.38;;;13.95;;
54845;SDS011;53889;50.084;8.646;2024-03-08T08:52:51;19.75;;;14.15;;
54845;SDS011;53889;50.084;8.646;2024-03-08T08:55:19;20.58;;;13.38;;
54845;SDS011;53889;50.084;8.646;2024-03-08T08:57:50;17.92;;;13.60;;
54845;SDS011;53889;50.084;8.646;2024-03-08T09:00:18;19.25;;;13.82;;
54845;SDS011;53889;50.084;8.646;2024-03-08T09:02:46;19.17;;;13.07;;
54845;SDS011;53889;50.084;8.646;2024-03-08T09:05:13;19.98;;;13.57;;
54845;SDS011;53889;50.084;8.646;2024-03-08T09:07:42;17.63;;;13.85;;
54845;SDS011;53889;50.084;8.646;2024-03-08T09:10:11;16.95;;;13.02;;
54845;SDS011;53889;50.084;8.646;2024-03-08T09:12:39;18.50;;;13.35;;
54845;SDS011;53889;50.084;8.646;2024-03-08T09:15:06;16.73;;;12.65;;
54845;SDS011;53889;50.084;8.646;2024-03-08T09:17:37;16.10;;;12.90;;
54845;SDS011;53889;50.084;8.646;2024-03-08T09:20:06;16.67;;;12.50;;
54845;SDS011;53889;50.084;8.646;2024-03-08T09:22:33;16.13;;;12.25;;
54845;SDS011;53889;50.084;8.646;2024-03-08T09:24:59;17.05;;;12.35;;
54845;SDS011;53889;50.084;8.646;2024-03-08T09:27:27;18.75;;;11.98;;
54845;SDS011;53889;50.084;8.646;2024-03-08T09:29:53;16.90;;;12.55;;
54845;SDS011;53889;50.084;8.646;2024-03-08T09:32:20;16.90;;;12.05;;
54845;SDS011;53889;50.084;8.646;2024-03-08T09:34:49;17.58;;;12.52;;
54845;SDS011;53889;50.084;8.646;2024-03-08T09:37:16;16.88;;;12.57;;
54845;SDS011;53889;50.084;8.646;2024-03-08T09:39:44;18.02;;;12.23;;
54845;SDS011;53889;50.084;8.646;2024-03-08T09:42:10;15.23;;;11.07;;
54845;SDS011;53889;50.084;8.646;2024-03-08T09:44:39;17.10;;;11.00;;
54845;SDS011;53889;50.084;8.646;2024-03-08T09:47:09;16.83;;;11.77;;
54845;SDS011;53889;50.084;8.646;2024-03-08T09:49:39;15.40;;;11.27;;
54845;SDS011;53889;50.084;8.646;2024-03-08T09:52:07;17.05;;;11.70;;
54845;SDS011;53889;50.084;8.646;2024-03-08T09:54:35;15.77;;;11.68;;
54845;SDS011;53889;50.084;8.646;2024-03-08T09:57:03;16.45;;;11.02;;
54845;SDS011;53889;50.084;8.646;2024-03-08T09:59:30;17.75;;;11.25;;
54845;SDS011;53889;50.084;8.646;2024-03-08T10:02:16;15.93;;;11.75;;
54845;SDS011;53889;50.084;8.646;2024-03-08T10:04:43;15.45;;;10.65;;
54845;SDS011;53889;50.084;8.646;2024-03-08T10:07:13;16.45;;;11.90;;
54845;SDS011;53889;50.084;8.646;2024-03-08T10:09:40;15.00;;;10.93;;
54845;SDS011;53889;50.084;8.646;2024-03-08T10:12:12;16.02;;;11.98;;
54845;SDS011;53889;50.084;8.646;2024-03-08T10:14:39;13.15;;;10.23;;
54845;SDS011;53889;50.084;8.646;2024-03-08T10:17:07;14.70;;;10.93;;
54845;SDS011;53889;50.084;8.646;2024-03-08T10:19:33;14.45;;;10.55;;
54845;SDS011;53889;50.084;8.646;2024-03-08T10:22:01;15.55;;;10.75;;
54845;SDS011;53889;50.084;8.646;2024-03-08T10:24:31;13.82;;;10.48;;
54845;SDS011;53889;50.084;8.646;2024-03-08T10:26:59;15.10;;;10.18;;
54845;SDS011;53889;50.084;8.646;2024-03-08T10:29:29;14.70;;;11.18;;
54845;SDS011;53889;50.084;8.646;2024-03-08T10:31:56;14.57;;;9.98;;
54845;SDS011;53889;50.084;8.646;2024-03-08T10:34:23;13.02;;;9.95;;
54845;SDS011;53889;50.084;8.646;2024-03-08T10:36:50;12.55;;;9.88;;
54845;SDS011;53889;50.084;8.646;2024-03-08T10:39:20;13.25;;;9.82;;
54845;SDS011;53889;50.084;8.646;2024-03-08T10:41:52;14.45;;;9.95;;
54845;SDS011;53889;50.084;8.646;2024-03-08T10:44:45;15.18;;;10.15;;
54845;SDS011;53889;50.084;8.646;2024-03-08T10:47:22;13.40;;;9.98;;
54845;SDS011;53889;50.084;8.646;2024-03-08T10:49:59;12.95;;;10.27;;
54845;SDS011;53889;50.084;8.646;2024-03-08T10:52:35;12.93;;;9.68;;
54845;SDS011;53889;50.084;8.646;2024-03-08T10:55:03;13.48;;;9.98;;
54845;SDS011;53889;50.084;8.646;2024-03-08T10:57:39;13.40;;;10.02;;
54845;SDS011;53889;50.084;8.646;2024-03-08T11:00:07;13.85;;;9.68;;
54845;SDS011;53889;50.084;8.646;2024-03-08T11:02:37;13.35;;;9.73;;
54845;SDS011;53889;50.084;8.646;2024-03-08T11:05:04;15.80;;;9.98;;
54845;SDS011;53889;50.084;8.646;2024-03-08T11:07:33;14.68;;;9.40;;
54845;SDS011;53889;50.084;8.646;2024-03-08T11:10:01;13.73;;;9.73;;
54845;SDS011;53889;50.084;8.646;2024-03-08T11:12:36;12.30;;;9.15;;
54845;SDS011;53889;50.084;8.646;2024-03-08T11:15:09;11.32;;;8.57;;
54845;SDS011;53889;50.084;8.646;2024-03-08T11:17:40;12.18;;;8.88;;
54845;SDS011;53889;50.084;8.646;2024-03-08T11:20:11;11.73;;;9.15;;
54845;SDS011;53889;50.084;8.646;2024-03-08T11:22:41;11.43;;;8.80;;
54845;SDS011;53889;50.084;8.646;2024-03-08T11:28:06;10.45;;;8.13;;
54845;SDS011;53889;50.084;8.646;2024-03-08T11:30:45;12.98;;;8.65;;
54845;SDS011;53889;50.084;8.646;2024-03-08T11:33:13;12.48;;;8.93;;
54845;SDS011;53889;50.084;8.646;2024-03-08T11:35:41;12.20;;;8.38;;
54845;SDS011;53889;50.084;8.646;2024-03-08T11:38:11;13.30;;;9.32;;
54845;SDS011;53889;50.084;8.646;2024-03-08T11:40:39;12.65;;;8.90;;
54845;SDS011;53889;50.084;8.646;2024-03-08T11:43:07;12.43;;;9.07;;
54845;SDS011;53889;50.084;8.646;2024-03-08T11:45:34;11.80;;;9.07;;
54845;SDS011;53889;50.084;8.646;2024-03-08T11:48:04;17.27;;;12.32;;
54845;SDS011;53889;50.084;8.646;2024-03-08T11:50:31;12.13;;;8.88;;
54845;SDS011;53889;50.084;8.646;2024-03-08T11:53:02;11.52;;;8.50;;
54845;SDS011;53889;50.084;8.646;2024-03-08T11:55:30;14.20;;;9.63;;
54845;SDS011;53889;50.084;8.646;2024-03-08T11:58:04;14.38;;;9.82;;
54845;SDS011;53889;50.084;8.646;2024-03-08T12:00:33;13.93;;;9.30;;
54845;SDS011;53889;50.084;8.646;2024-03-08T12:03:05;14.73;;;9.70;;
54845;SDS011;53889;50.084;8.646;2024-03-08T12:05:32;12.88;;;9.80;;
54845;SDS011;53889;50.084;8.646;2024-03-08T12:08:00;13.65;;;9.30;;
54845;SDS011;53889;50.084;8.646;2024-03-08T12:10:28;14.15;;;10.50;;
54845;SDS011;53889;50.084;8.646;2024-03-08T12:12:55;14.15;;;9.93;;
54845;SDS011;53889;50.084;8.646;2024-03-08T12:15:24;12.32;;;9.70;;
54845;SDS011;53889;50.084;8.646;2024-03-08T12:17:52;14.35;;;10.07;;
54845;SDS011;53889;50.084;8.646;2024-03-08T12:20:22;13.63;;;9.63;;
54845;SDS011;53889;50.084;8.646;2024-03-08T12:22:51;12.23;;;9.63;;
54845;SDS011;53889;50.084;8.646;2024-03-08T12:25:18;13.02;;;9.57;;
54845;SDS011;53889;50.084;8.646;2024-03-08T12:27:46;13.68;;;9.65;;
54845;SDS011;53889;50.084;8.646;2024-03-08T12:30:20;12.65;;;9.18;;
54845;SDS011;53889;50.084;8.646;2024-03-08T12:32:50;17.02;;;11.35;;
54845;SDS011;53889;50.084;8.646;2024-03-08T12:35:20;13.82;;;9.95;;
54845;SDS011;53889;50.084;8.646;2024-03-08T12:37:49;14.90;;;10.48;;
54845;SDS011;53889;50.084;8.646;2024-03-08T12:40:18;17.25;;;10.80;;
54845;SDS011;53889;50.084;8.646;2024-03-08T12:42:46;14.25;;;9.93;;
54845;SDS011;53889;50.084;8.646;2024-03-08T12:45:14;14.90;;;10.20;;
54845;SDS011;53889;50.084;8.646;2024-03-08T12:47:40;13.60;;;9.45;;
54845;SDS011;53889;50.084;8.646;2024-03-08T12:50:08;15.25;;;10.00;;
54845;SDS011;53889;50.084;8.646;2024-03-08T12:52:38;13.85;;;9.50;;
54845;SDS011;53889;50.084;8.646;2024-03-08T12:55:05;14.70;;;10.32;;
54845;SDS011;53889;50.084;8.646;2024-03-08T12:57:33;14.43;;;10.00;;
54845;SDS011;53889;50.084;8.646;2024-03-08T13:00:03;12.68;;;9.23;;
54845;SDS011;53889;50.084;8.646;2024-03-08T13:02:31;14.30;;;9.68;;
54845;SDS011;53889;50.084;8.646;2024-03-08T13:04:58;14.93;;;10.30;;
54845;SDS011;53889;50.084;8.646;2024-03-08T13:07:26;14.32;;;10.57;;
54845;SDS011;53889;50.084;8.646;2024-03-08T13:09:54;13.88;;;10.23;;
54845;SDS011;53889;50.084;8.646;2024-03-08T13:12:22;14.40;;;10.23;;
54845;SDS011;53889;50.084;8.646;2024-03-08T13:14:49;13.20;;;9.48;;
54845;SDS011;53889;50.084;8.646;2024-03-08T13:17:15;14.52;;;10.15;;
54845;SDS011;53889;50.084;8.646;2024-03-08T13:19:43;13.73;;;9.63;;
54845;SDS011;53889;50.084;8.646;2024-03-08T13:22:10;13.25;;;9.73;;
54845;SDS011;53889;50.084;8.646;2024-03-08T13:24:38;14.90;;;9.40;;
54845;SDS011;53889;50.084;8.646;2024-03-08T13:27:08;14.45;;;10.20;;
54845;SDS011;53889;50.084;8.646;2024-03-08T13:29:45;13.80;;;9.95;;
54845;SDS011;53889;50.084;8.646;2024-03-08T13:32:13;15.38;;;10.07;;
54845;SDS011;53889;50.084;8.646;2024-03-08T13:34:41;12.40;;;9.35;;
54845;SDS011;53889;50.084;8.646;2024-03-08T13:37:08;17.73;;;12.07;;
54845;SDS011;53889;50.084;8.646;2024-03-08T13:39:36;13.57;;;9.63;;
54845;SDS011;53889;50.084;8.646;2024-03-08T13:42:10;15.18;;;10.23;;
54845;SDS011;53889;50.084;8.646;2024-03-08T13:44:43;13.90;;;10.27;;
54845;SDS011;53889;50.084;8.646;2024-03-08T13:47:11;14.32;;;10.50;;
54845;SDS011;53889;50.084;8.646;2024-03-08T13:49:39;16.15;;;11.07;;
54845;SDS011;53889;50.084;8.646;2024-03-08T13:52:05;15.45;;;10.45;;
54845;SDS011;53889;50.084;8.646;2024-03-08T13:54:34;15.02;;;10.40;;
54845;SDS011;53889;50.084;8.646;2024-03-08T13:57:01;16.00;;;10.85;;
54845;SDS011;53889;50.084;8.646;2024-03-08T13:59:30;17.90;;;10.70;;
54845;SDS011;53889;50.084;8.646;2024-03-08T14:01:58;18.02;;;10.68;;
54845;SDS011;53889;50.084;8.646;2024-03-08T14:04:26;20.35;;;11.23;;
54845;SDS011;53889;50.084;8.646;2024-03-08T14:06:53;16.33;;;10.93;;
54845;SDS011;53889;50.084;8.646;2024-03-08T14:09:22;18.27;;;10.95;;
54845;SDS011;53889;50.084;8.646;2024-03-08T14:11:50;19.05;;;11.23;;
54845;SDS011;53889;50.084;8.646;2024-03-08T14:14:19;17.20;;;10.48;;
54845;SDS011;53889;50.084;8.646;2024-03-08T14:16:47;18.65;;;12.50;;
54845;SDS011;53889;50.084;8.646;2024-03-08T14:19:14;17.90;;;11.40;;
54845;SDS011;53889;50.084;8.646;2024-03-08T14:21:41;17.95;;;11.15;;
54845;SDS011;53889;50.084;8.646;2024-03-08T14:24:08;17.60;;;11.27;;
54845;SDS011;53889;50.084;8.646;2024-03-08T14:26:35;17.45;;;11.52;;
54845;SDS011;53889;50.084;8.646;2024-03-08T14:29:03;17.20;;;10.90;;
54845;SDS011;53889;50.084;8.646;2024-03-08T14:31:30;19.10;;;11.60;;
54845;SDS011;53889;50.084;8.646;2024-03-08T14:33:58;17.20;;;10.52;;
54845;SDS011;53889;50.084;8.646;2024-03-08T14:36:25;17.65;;;10.90;;
54845;SDS011;53889;50.084;8.646;2024-03-08T14:38:53;16.88;;;10.68;;
54845;SDS011;53889;50.084;8.646;2024-03-08T14:41:20;16.15;;;10.95;;
54845;SDS011;53889;50.084;8.646;2024-03-08T14:43:47;18.45;;;11.07;;
54845;SDS011;53889;50.084;8.646;2024-03-08T14:46:14;17.65;;;11.25;;
54845;SDS011;53889;50.084;8.646;2024-03-08T14:48:42;18.98;;;11.90;;
54845;SDS011;53889;50.084;8.646;2024-03-08T14:51:10;18.27;;;10.77;;
54845;SDS011;53889;50.084;8.646;2024-03-08T14:53:40;18.48;;;11.05;;
54845;SDS011;53889;50.084;8.646;2024-03-08T14:56:16;18.13;;;10.70;;
54845;SDS011;53889;50.084;8.646;2024-03-08T14:58:44;16.42;;;10.52;;
54845;SDS011;53889;50.084;8.646;2024-03-08T15:04:09;17.35;;;10.70;;
54845;SDS011;53889;50.084;8.646;2024-03-08T15:06:39;16.88;;;10.68;;
54845;SDS011;53889;50.084;8.646;2024-03-08T15:09:07;17.65;;;10.07;;
54845;SDS011;53889;50.084;8.646;2024-03-08T15:11:44;18.05;;;10.60;;
54845;SDS011;53889;50.084;8.646;2024-03-08T15:14:11;15.95;;;9.98;;
54845;SDS011;53889;50.084;8.646;2024-03-08T15:16:38;15.73;;;9.70;;
54845;SDS011;53889;50.084;8.646;2024-03-08T15:19:06;16.40;;;9.80;;
54845;SDS011;53889;50.084;8.646;2024-03-08T15:21:33;17.75;;;10.05;;
54845;SDS011;53889;50.084;8.646;2024-03-08T15:24:03;15.57;;;9.90;;
54845;SDS011;53889;50.084;8.646;2024-03-08T15:26:35;17.30;;;10.25;;
54845;SDS011;53889;50.084;8.646;2024-03-08T15:29:01;16.75;;;10.50;;
54845;SDS011;53889;50.084;8.646;2024-03-08T15:31:30;16.63;;;10.10;;
54845;SDS011;53889;50.084;8.646;2024-03-08T15:33:57;16.10;;;9.80;;
54845;SDS011;53889;50.084;8.646;2024-03-08T15:36:31;16.65;;;10.07;;
54845;SDS011;53889;50.084;8.646;2024-03-08T15:38:58;15.48;;;9.90;;
54845;SDS011;53889;50.084;8.646;2024-03-08T15:41:27;14.43;;;9.23;;
54845;SDS011;53889;50.084;8.646;2024-03-08T15:43:54;16.73;;;10.45;;
54845;SDS011;53889;50.084;8.646;2024-03-08T15:49:03;15.23;;;9.55;;
54845;SDS011;53889;50.084;8.646;2024-03-08T15:51:30;15.65;;;9.88;;
54845;SDS011;53889;50.084;8.646;2024-03-08T15:53:57;16.85;;;9.90;;
54845;SDS011;53889;50.084;8.646;2024-03-08T15:56:25;14.43;;;9.35;;
54845;SDS011;53889;50.084;8.646;2024-03-08T15:58:53;15.52;;;9.20;;
54845;SDS011;53889;50.084;8.646;2024-03-08T16:01:21;18.08;;;9.88;;
54845;SDS011;53889;50.084;8.646;2024-03-08T16:03:48;13.75;;;8.98;;
54845;SDS011;53889;50.084;8.646;2024-03-08T16:06:15;13.65;;;8.63;;
54845;SDS011;53889;50.084;8.646;2024-03-08T16:08:46;19.73;;;9.95;;
54845;SDS011;53889;50.084;8.646;2024-03-08T16:11:13;14.43;;;9.00;;
54845;SDS011;53889;50.084;8.646;2024-03-08T16:13:40;14.80;;;8.88;;
54845;SDS011;53889;50.084;8.646;2024-03-08T16:16:08;13.35;;;8.75;;
54845;SDS011;53889;50.084;8.646;2024-03-08T16:18:35;15.63;;;9.82;;
54845;SDS011;53889;50.084;8.646;2024-03-08T16:21:02;14.35;;;8.70;;
54845;SDS011;53889;50.084;8.646;2024-03-08T16:23:30;14.30;;;8.68;;
54845;SDS011;53889;50.084;8.646;2024-03-08T16:25:57;14.05;;;9.02;;
54845;SDS011;53889;50.084;8.646;2024-03-08T16:28:24;13.55;;;8.30;;
54845;SDS011;53889;50.084;8.646;2024-03-08T16:30:53;13.35;;;8.65;;
54845;SDS011;53889;50.084;8.646;2024-03-08T16:33:21;12.73;;;7.78;;
54845;SDS011;53889;50.084;8.646;2024-03-08T16:35:49;14.07;;;8.70;;
54845;SDS011;53889;50.084;8.646;2024-03-08T16:38:16;14.18;;;8.32;;
54845;SDS011;53889;50.084;8.646;2024-03-08T16:40:45;14.15;;;8.43;;
54845;SDS011;53889;50.084;8.646;2024-03-08T16:43:12;14.48;;;8.70;;
54845;SDS011;53889;50.084;8.646;2024-03-08T16:45:40;16.17;;;8.55;;
54845;SDS011;53889;50.084;8.646;2024-03-08T16:48:08;14.45;;;7.93;;
54845;SDS011;53889;50.084;8.646;2024-03-08T16:50:37;14.10;;;8.15;;
54845;SDS011;53889;50.084;8.646;2024-03-08T16:53:06;11.63;;;8.07;;
54845;SDS011;53889;50.084;8.646;2024-03-08T16:55:33;12.85;;;8.32;;
54845;SDS011;53889;50.084;8.646;2024-03-08T16:58:00;13.70;;;7.78;;
54845;SDS011;53889;50.084;8.646;2024-03-08T17:00:29;13.93;;;7.70;;
54845;SDS011;53889;50.084;8.646;2024-03-08T17:02:57;13.98;;;8.40;;
54845;SDS011;53889;50.084;8.646;2024-03-08T17:05:27;12.63;;;7.97;;
54845;SDS011;53889;50.084;8.646;2024-03-08T17:07:57;12.45;;;7.50;;
54845;SDS011;53889;50.084;8.646;2024-03-08T17:10:25;13.50;;;8.00;;